Time;durP1;ratioP1;P1;durP2;ratioP2;P2;SDS_P1;SDS_P2;PMS_P1;PMS_P2;Temp;Humidity;BMP_temperature;BMP_pressure;BME280_temperature;BME280_humidity;BME280_pressure;Samples;Min_cycle;Max_cycle;Signal;HPM_P1;HPM_P2
2022/06/13 00:02:22;;;;;;;6.27;5.77;;;20.00;99.90;;;;;;5134285;27;20452;-69
2022/06/13 00:04:50;;;;;;;6.00;5.50;;;20.00;99.90;;;;;;5134378;27;20527;-68
2022/06/13 00:07:17;;;;;;;7.03;5.33;;;19.90;99.90;;;;;;5134520;27;20532;-68
2022/06/13 00:09:44;;;;;;;7.60;5.90;;;19.80;99.90;;;;;;5134286;27;20495;-68
2022/06/13 00:12:11;;;;;;;6.00;5.50;;;19.60;99.90;;;;;;5133857;27;20526;-69
2022/06/13 00:14:38;;;;;;;5.70;5.10;;;19.70;99.90;;;;;;5134189;27;20537;-69
2022/06/13 00:17:05;;;;;;;6.63;5.73;;;19.80;99.90;;;;;;5134933;27;20483;-69
2022/06/13 00:19:32;;;;;;;6.68;6.15;;;19.60;99.90;;;;;;5134231;27;20550;-68
2022/06/13 00:22:00;;;;;;;7.43;6.45;;;19.50;99.90;;;;;;5134118;27;20197;-72
2022/06/13 00:24:27;;;;;;;6.40;5.80;;;19.50;99.90;;;;;;5134008;27;20296;-70
2022/06/13 00:26:53;;;;;;;5.55;5.25;;;19.60;99.90;;;;;;5134745;27;20448;-68
2022/06/13 00:29:20;;;;;;;4.90;4.50;;;19.70;99.90;;;;;;5134321;27;20315;-69
2022/06/13 00:31:47;;;;;;;6.00;5.50;;;19.70;99.90;;;;;;5134050;27;20533;-69
2022/06/13 00:34:14;;;;;;;6.30;5.80;;;19.60;99.90;;;;;;5133848;27;20810;-69
2022/06/13 00:36:41;;;;;;;6.50;5.80;;;19.40;99.90;;;;;;5133406;27;21025;-68
2022/06/13 00:39:09;;;;;;;6.10;5.60;;;19.30;99.90;;;;;;5134125;27;20801;-68
2022/06/13 00:41:38;;;;;;;5.85;5.45;;;19.30;99.90;;;;;;5133668;27;20298;-67
2022/06/13 00:44:17;;;;;;;6.65;5.95;;;19.20;99.90;;;;;;5133803;27;20292;-67
2022/06/13 00:46:44;;;;;;;5.75;5.25;;;19.30;99.90;;;;;;5134243;27;20732;-68
2022/06/13 00:49:14;;;;;;;5.83;5.23;;;19.40;99.90;;;;;;5133939;27;20308;-69
2022/06/13 00:51:46;;;;;;;5.83;5.43;;;19.40;99.90;;;;;;5134574;27;20527;-69
2022/06/13 00:54:17;;;;;;;5.68;5.18;;;19.50;99.90;;;;;;5134353;27;20452;-69
2022/06/13 00:56:44;;;;;;;6.00;5.50;;;19.50;99.90;;;;;;5135646;27;20224;-69
2022/06/13 00:59:14;;;;;;;6.00;5.45;;;19.50;99.90;;;;;;5134505;27;20438;-69
2022/06/13 01:01:41;;;;;;;5.87;5.37;;;19.30;99.90;;;;;;5134478;27;20668;-69
2022/06/13 01:04:09;;;;;;;6.43;5.83;;;19.30;99.90;;;;;;5134547;27;20526;-69
2022/06/13 01:06:40;;;;;;;6.97;6.13;;;19.20;99.90;;;;;;5134632;27;20527;-69
2022/06/13 01:09:09;;;;;;;6.03;5.63;;;19.30;99.90;;;;;;5134641;27;20313;-69
2022/06/13 01:11:38;;;;;;;6.47;5.87;;;19.30;99.90;;;;;;5134665;27;20547;-69
2022/06/13 01:14:34;;;;;;;6.00;5.40;;;19.40;99.90;;;;;;5134425;27;20516;-69
2022/06/13 01:17:21;;;;;;;5.65;5.25;;;19.40;99.90;;;;;;5134535;27;20453;-69
2022/06/13 01:20:21;;;;;;;6.03;5.53;;;19.40;99.90;;;;;;5134440;27;20226;-69
2022/06/13 01:23:29;;;;;;;5.50;5.10;;;19.40;99.90;;;;;;5134088;27;20484;-69
2022/06/13 01:26:19;;;;;;;5.90;5.40;;;19.50;99.90;;;;;;5134548;27;20835;-69
2022/06/13 01:29:11;;;;;;;6.00;5.50;;;19.50;99.90;;;;;;5134754;27;20309;-69
2022/06/13 01:31:45;;;;;;;5.80;5.30;;;19.60;99.90;;;;;;5131653;27;20547;-69
2022/06/13 01:34:21;;;;;;;5.97;5.40;;;19.60;99.90;;;;;;5134342;27;20528;-69
2022/06/13 01:36:59;;;;;;;5.55;5.15;;;19.60;99.90;;;;;;5134482;27;20526;-69
2022/06/13 01:39:44;;;;;;;5.63;5.25;;;19.50;99.90;;;;;;5134373;27;20204;-69
2022/06/13 01:42:31;;;;;;;5.43;5.03;;;19.60;99.90;;;;;;5134791;27;20308;-69
2022/06/13 01:45:08;;;;;;;5.50;5.07;;;19.60;99.90;;;;;;5134412;27;20530;-69
2022/06/13 01:47:46;;;;;;;6.28;5.70;;;19.40;99.90;;;;;;5135234;27;20851;-69
2022/06/13 01:50:22;;;;;;;5.88;5.28;;;19.20;99.90;;;;;;5139077;27;20253;-69
2022/06/13 01:52:55;;;;;;;5.90;5.40;;;19.20;99.90;;;;;;5139106;27;20297;-69
2022/06/13 01:55:28;;;;;;;6.00;5.60;;;19.10;99.90;;;;;;5138435;27;20209;-69
2022/06/13 01:58:05;;;;;;;5.47;5.07;;;19.00;99.90;;;;;;5138516;27;20208;-69
2022/06/13 02:00:34;;;;;;;6.47;5.93;;;19.00;99.90;;;;;;5138373;27;20227;-69
2022/06/13 02:03:11;;;;;;;5.25;4.85;;;18.90;99.90;;;;;;5137944;27;20293;-69
2022/06/13 02:05:43;;;;;;;5.47;4.97;;;19.00;99.90;;;;;;5138133;27;20228;-69
2022/06/13 02:08:15;;;;;;;6.00;5.40;;;19.10;99.90;;;;;;5137915;27;20558;-69
2022/06/13 02:10:47;;;;;;;5.75;5.30;;;19.20;99.90;;;;;;5137939;27;20459;-69
2022/06/13 02:13:29;;;;;;;5.90;5.50;;;19.20;99.90;;;;;;5138454;27;20273;-69
2022/06/13 02:15:59;;;;;;;5.67;5.20;;;19.20;99.90;;;;;;5138285;27;20439;-69
2022/06/13 02:18:31;;;;;;;5.70;5.20;;;19.30;99.90;;;;;;5138360;27;20446;-69
2022/06/13 02:21:03;;;;;;;6.07;5.57;;;19.30;99.90;;;;;;5137891;27;21028;-69
2022/06/13 02:23:34;;;;;;;5.97;5.47;;;19.40;99.90;;;;;;5137518;27;20484;-69
2022/06/13 02:26:04;;;;;;;6.38;5.88;;;19.40;99.90;;;;;;5137758;27;20445;-69
2022/06/13 02:28:37;;;;;;;5.30;4.80;;;19.40;99.90;;;;;;5137648;27;20566;-69
2022/06/13 02:31:08;;;;;;;5.97;5.47;;;19.40;99.90;;;;;;5137702;27;20907;-69
2022/06/13 02:33:41;;;;;;;5.53;5.07;;;19.40;99.90;;;;;;5137393;27;20243;-69
2022/06/13 02:36:14;;;;;;;6.20;5.80;;;19.40;99.90;;;;;;5137617;27;20542;-69
2022/06/13 02:38:47;;;;;;;5.80;5.40;;;19.40;99.90;;;;;;5137600;27;20442;-69
2022/06/13 02:41:18;;;;;;;6.50;6.00;;;19.40;99.90;;;;;;5137124;27;20550;-69
2022/06/13 02:43:52;;;;;;;6.37;5.87;;;19.30;99.90;;;;;;5137186;27;20438;-69
2022/06/13 02:46:25;;;;;;;5.77;5.37;;;19.30;99.90;;;;;;5137285;27;20443;-69
2022/06/13 02:48:58;;;;;;;6.70;6.20;;;19.30;99.90;;;;;;5137164;27;20553;-69
2022/06/13 02:51:33;;;;;;;6.65;5.60;;;19.30;99.90;;;;;;5136901;27;20741;-69
2022/06/13 02:54:07;;;;;;;5.47;5.07;;;19.20;99.90;;;;;;5136668;27;20304;-69
2022/06/13 02:57:23;;;;;;;5.80;5.40;;;19.20;99.90;;;;;;5136866;27;20286;-69
2022/06/13 02:59:43;;;;;;;6.80;5.33;;;19.10;99.90;;;;;;5135813;27;20461;-69
2022/06/13 03:02:14;;;;;;;6.23;5.63;;;19.10;99.90;;;;;;5136916;27;20455;-70
2022/06/13 03:04:52;;;;;;;6.43;5.82;;;19.00;99.90;;;;;;5136974;27;20443;-69
2022/06/13 03:07:25;;;;;;;6.55;5.80;;;19.00;99.90;;;;;;5136849;27;20228;-69
2022/06/13 03:09:57;;;;;;;5.35;4.85;;;18.90;99.90;;;;;;5136748;27;20308;-69
2022/06/13 03:12:32;;;;;;;7.78;4.80;;;18.80;99.90;;;;;;5136716;27;20293;-69
2022/06/13 03:15:04;;;;;;;5.20;4.78;;;18.80;99.90;;;;;;5137185;27;20620;-69
2022/06/13 03:17:38;;;;;;;5.00;4.50;;;18.70;99.90;;;;;;5137875;27;20205;-70
2022/06/13 03:20:10;;;;;;;5.57;4.90;;;18.60;99.90;;;;;;5139495;27;20308;-70
2022/06/13 03:22:44;;;;;;;5.15;4.70;;;18.50;99.90;;;;;;5140198;27;20574;-70
2022/06/13 03:25:16;;;;;;;5.50;5.00;;;18.40;99.90;;;;;;5137597;27;20197;-70
2022/06/13 03:27:49;;;;;;;5.25;4.85;;;18.40;99.90;;;;;;5136609;27;20603;-70
2022/06/13 03:30:19;;;;;;;4.93;4.53;;;18.40;99.90;;;;;;5136172;27;20256;-70
2022/06/13 03:35:34;;;;;;;4.85;4.43;;;18.20;99.90;;;;;;5135990;27;20707;-70
2022/06/13 03:38:04;;;;;;;5.13;4.55;;;18.20;99.90;;;;;;5136291;27;20212;-69
2022/06/13 03:40:33;;;;;;;5.50;4.72;;;18.10;99.90;;;;;;5135905;27;20244;-69
2022/06/13 03:43:05;;;;;;;5.45;4.80;;;18.10;99.90;;;;;;5135924;27;20232;-70
2022/06/13 03:45:37;;;;;;;6.22;4.80;;;18.00;99.90;;;;;;5136183;27;20237;-69
2022/06/13 03:48:09;;;;;;;5.30;4.80;;;18.00;99.90;;;;;;5136475;27;20548;-69
2022/06/13 03:50:42;;;;;;;5.15;4.65;;;17.90;99.90;;;;;;5135784;27;20220;-69
2022/06/13 03:53:15;;;;;;;5.32;4.38;;;17.90;99.90;;;;;;5135634;27;20211;-69
2022/06/13 03:55:49;;;;;;;5.60;5.07;;;17.80;99.90;;;;;;5135894;27;20232;-69
2022/06/13 03:58:20;;;;;;;5.00;4.50;;;17.80;99.90;;;;;;5135861;27;20255;-70
2022/06/13 04:00:58;;;;;;;5.13;4.63;;;17.60;99.90;;;;;;5135800;27;20256;-69
2022/06/13 04:03:27;;;;;;;5.38;4.47;;;17.60;99.90;;;;;;5135422;27;20624;-69
2022/06/13 04:06:01;;;;;;;5.10;4.60;;;17.60;99.90;;;;;;5135625;27;20666;-69
2022/06/13 04:08:30;;;;;;;5.10;4.60;;;17.60;99.90;;;;;;5135607;27;20197;-69
2022/06/13 04:11:09;;;;;;;5.30;4.70;;;17.60;99.90;;;;;;5134951;27;20275;-70
2022/06/13 04:13:49;;;;;;;9.68;6.60;;;17.60;99.90;;;;;;5135042;27;20207;-69
2022/06/13 04:16:26;;;;;;;9.18;4.70;;;17.50;99.90;;;;;;5135433;27;20231;-69
2022/06/13 04:19:07;;;;;;;6.32;4.75;;;17.50;99.90;;;;;;5135522;27;20201;-69
2022/06/13 04:21:41;;;;;;;4.90;4.50;;;17.50;99.90;;;;;;5135238;27;20220;-70
2022/06/13 04:24:23;;;;;;;7.05;4.38;;;17.50;99.90;;;;;;5135176;27;20285;-70
2022/06/13 04:26:54;;;;;;;4.55;3.90;;;17.50;99.90;;;;;;5135331;27;20185;-70
2022/06/13 04:29:27;;;;;;;5.90;4.55;;;17.40;99.90;;;;;;5135399;27;20263;-70
2022/06/13 04:31:58;;;;;;;4.55;4.15;;;17.40;99.90;;;;;;5135348;27;20193;-70
2022/06/13 04:34:31;;;;;;;10.25;8.45;;;17.40;99.90;;;;;;5135047;27;20610;-70
2022/06/13 04:37:01;;;;;;;6.88;5.88;;;17.40;99.90;;;;;;5135086;27;20197;-70
2022/06/13 04:39:33;;;;;;;6.18;4.60;;;17.40;99.90;;;;;;5135036;27;20235;-70
2022/06/13 04:42:02;;;;;;;5.15;4.65;;;17.30;99.90;;;;;;5135106;27;20547;-69
2022/06/13 04:44:32;;;;;;;6.13;5.30;;;17.30;99.90;;;;;;5134703;27;20229;-69
2022/06/13 04:47:00;;;;;;;6.65;5.22;;;17.20;99.90;;;;;;5134890;27;20243;-70
2022/06/13 04:49:31;;;;;;;6.95;5.50;;;17.20;99.90;;;;;;5134737;27;20311;-70
2022/06/13 04:52:04;;;;;;;6.97;4.25;;;17.10;99.90;;;;;;5135128;27;20208;-70
2022/06/13 04:54:35;;;;;;;7.25;4.95;;;17.00;99.90;;;;;;5134710;27;20243;-69
2022/06/13 04:57:03;;;;;;;5.50;5.00;;;17.10;99.90;;;;;;5134896;27;20240;-69
2022/06/13 04:59:31;;;;;;;6.60;4.70;;;16.90;99.90;;;;;;5134732;27;20646;-70
2022/06/13 05:02:01;;;;;;;9.10;5.20;;;16.90;99.90;;;;;;5134457;27;20197;-69
2022/06/13 05:04:31;;;;;;;5.65;5.15;;;17.00;99.90;;;;;;5134544;27;20226;-70
2022/06/13 05:07:07;;;;;;;8.52;5.72;;;16.90;99.90;;;;;;5134694;27;20204;-70
2022/06/13 05:09:37;;;;;;;6.57;5.97;;;16.90;99.90;;;;;;5134393;27;20315;-70
2022/06/13 05:12:11;;;;;;;5.40;4.90;;;16.90;99.90;;;;;;5134664;27;20236;-70
2022/06/13 05:14:41;;;;;;;5.90;4.97;;;16.90;99.90;;;;;;5134566;27;20218;-70
2022/06/13 05:17:44;;;;;;;5.90;5.30;;;17.00;99.90;;;;;;5134301;27;20235;-69
2022/06/13 05:20:18;;;;;;;5.90;5.10;;;17.00;99.90;;;;;;5121555;27;20230;-70
2022/06/13 05:22:57;;;;;;;5.60;5.10;;;16.80;99.90;;;;;;5134930;27;20188;-70
2022/06/13 05:25:33;;;;;;;5.45;4.93;;;16.80;99.90;;;;;;5138669;27;20207;-69
2022/06/13 05:28:00;;;;;;;5.97;5.47;;;16.90;99.90;;;;;;5138855;27;20616;-70
2022/06/13 05:30:28;;;;;;;6.43;5.82;;;16.80;99.90;;;;;;5138765;27;20262;-69
2022/06/13 05:32:56;;;;;;;8.70;6.00;;;16.80;99.90;;;;;;5138590;27;20251;-69
2022/06/13 05:35:26;;;;;;;9.30;6.63;;;16.70;99.90;;;;;;5138573;27;20336;-69
2022/06/13 05:37:55;;;;;;;6.25;5.65;;;16.60;99.90;;;;;;5138740;27;20230;-69
2022/06/13 05:40:24;;;;;;;8.45;5.82;;;16.60;99.90;;;;;;5138292;27;20248;-69
2022/06/13 05:42:51;;;;;;;5.90;5.30;;;16.50;99.90;;;;;;5138238;27;20258;-69
2022/06/13 05:45:22;;;;;;;5.60;5.10;;;16.50;99.90;;;;;;5138455;27;20204;-69
2022/06/13 05:47:50;;;;;;;7.75;5.47;;;16.60;99.90;;;;;;5138400;27;20235;-70
2022/06/13 05:50:19;;;;;;;6.22;5.63;;;16.70;99.90;;;;;;5137941;27;20765;-69
2022/06/13 05:52:46;;;;;;;9.18;6.03;;;16.80;99.90;;;;;;5137784;27;20676;-69
2022/06/13 05:55:15;;;;;;;5.93;4.70;;;16.90;99.90;;;;;;5138648;27;20262;-69
2022/06/13 05:57:42;;;;;;;5.85;5.25;;;16.80;99.90;;;;;;5138206;27;20240;-69
2022/06/13 06:00:17;;;;;;;6.43;4.88;;;16.70;99.90;;;;;;5137846;27;20311;-70
2022/06/13 06:02:43;;;;;;;6.55;5.90;;;16.90;99.90;;;;;;5138008;27;20207;-69
2022/06/13 06:05:11;;;;;;;6.00;5.32;;;17.00;99.90;;;;;;5138046;27;20207;-69
2022/06/13 06:07:38;;;;;;;5.80;5.30;;;16.90;99.90;;;;;;5137985;27;20296;-69
2022/06/13 06:10:08;;;;;;;6.57;5.20;;;17.00;99.90;;;;;;5137572;27;20256;-69
2022/06/13 06:12:36;;;;;;;6.63;5.20;;;17.00;99.90;;;;;;5137697;27;20709;-69
2022/06/13 06:15:03;;;;;;;5.30;4.80;;;17.10;99.90;;;;;;5137878;27;20207;-70
2022/06/13 06:17:30;;;;;;;5.30;4.60;;;17.20;99.90;;;;;;5137599;27;20678;-70
2022/06/13 06:19:57;;;;;;;8.25;4.80;;;17.20;99.90;;;;;;5137708;27;20269;-70
2022/06/13 06:22:24;;;;;;;5.63;4.75;;;17.20;99.90;;;;;;5137855;27;20562;-70
2022/06/13 06:24:51;;;;;;;5.43;4.85;;;17.20;99.90;;;;;;5137610;27;20700;-69
2022/06/13 06:27:18;;;;;;;5.18;4.68;;;17.30;99.90;;;;;;5137567;27;20678;-69
2022/06/13 06:29:46;;;;;;;5.53;4.35;;;17.30;99.90;;;;;;5137602;27;20263;-69
2022/06/13 06:32:13;;;;;;;8.60;5.30;;;17.40;99.90;;;;;;5137227;27;20243;-69
2022/06/13 06:34:39;;;;;;;6.05;5.25;;;17.30;99.90;;;;;;5136372;27;20236;-69
2022/06/13 06:37:07;;;;;;;8.07;4.43;;;17.30;99.90;;;;;;5137449;27;20269;-69
2022/06/13 06:39:34;;;;;;;5.28;3.88;;;17.30;99.90;;;;;;5137262;27;20294;-70
2022/06/13 06:42:01;;;;;;;4.70;4.25;;;17.40;99.90;;;;;;5137336;27;20235;-69
2022/06/13 06:44:28;;;;;;;3.95;3.65;;;17.50;99.90;;;;;;5137182;27;20232;-69
2022/06/13 06:46:56;;;;;;;5.55;4.47;;;17.70;99.90;;;;;;5137581;27;20240;-69
2022/06/13 06:49:23;;;;;;;5.40;4.40;;;17.80;99.90;;;;;;5137031;27;20207;-69
2022/06/13 06:51:49;;;;;;;4.47;3.92;;;17.80;99.90;;;;;;5137184;27;20232;-69
2022/06/13 06:59:57;;;;;;;5.07;4.63;;;18.10;99.90;;;;;;5136900;27;20710;-69
2022/06/13 07:02:27;;;;;;;5.15;4.25;;;18.30;99.90;;;;;;5136868;27;20225;-70
2022/06/13 07:04:56;;;;;;;6.13;4.38;;;18.40;99.90;;;;;;5136811;27;20208;-70
2022/06/13 07:07:23;;;;;;;4.38;3.95;;;18.40;99.90;;;;;;5136878;27;20233;-70
2022/06/13 07:09:51;;;;;;;5.47;4.68;;;18.70;99.90;;;;;;5136512;27;20225;-70
2022/06/13 07:12:18;;;;;;;5.40;4.35;;;18.70;99.90;;;;;;5136657;27;20236;-70
2022/06/13 07:14:46;;;;;;;3.65;3.35;;;18.80;99.90;;;;;;5136727;27;20207;-70
2022/06/13 07:17:14;;;;;;;6.65;4.28;;;18.90;99.90;;;;;;5136693;27;20224;-70
2022/06/13 07:19:44;;;;;;;12.10;4.30;;;18.90;99.90;;;;;;5136533;27;20233;-70
2022/06/13 07:22:16;;;;;;;6.35;4.60;;;19.10;99.90;;;;;;5136516;27;20470;-69
2022/06/13 07:24:44;;;;;;;4.43;4.00;;;19.10;99.90;;;;;;5136713;27;20206;-69
2022/06/13 07:27:12;;;;;;;4.32;3.92;;;19.10;99.90;;;;;;5143148;27;20236;-70
2022/06/13 07:29:39;;;;;;;4.75;4.25;;;19.00;99.90;;;;;;5155925;27;20227;-70
2022/06/13 07:32:09;;;;;;;5.47;4.95;;;19.00;99.90;;;;;;5155498;27;20291;-70
2022/06/13 07:34:38;;;;;;;4.88;4.35;;;18.90;99.90;;;;;;5155869;27;20236;-69
2022/06/13 07:37:09;;;;;;;9.85;4.70;;;19.00;99.90;;;;;;5155832;27;20251;-70
2022/06/13 07:39:36;;;;;;;4.28;3.88;;;19.10;99.90;;;;;;5155512;27;20264;-69
2022/06/13 07:42:04;;;;;;;4.83;4.33;;;19.00;99.90;;;;;;5155508;27;20243;-69
2022/06/13 07:44:34;;;;;;;4.95;4.55;;;19.00;99.90;;;;;;5155045;27;20477;-70
2022/06/13 07:47:02;;;;;;;5.07;4.10;;;19.00;99.90;;;;;;5155564;27;20241;-70
2022/06/13 07:49:28;;;;;;;8.03;4.37;;;18.90;99.90;;;;;;5156003;27;20574;-70
2022/06/13 07:51:56;;;;;;;6.60;4.60;;;19.60;99.90;;;;;;5155757;27;20479;-70
2022/06/13 07:54:24;;;;;;;4.07;3.63;;;20.60;99.90;;;;;;5155609;27;20457;-71
2022/06/13 07:56:51;;;;;;;4.30;3.90;;;21.30;99.80;;;;;;5155411;27;20452;-70
2022/06/13 07:59:22;;;;;;;4.93;3.83;;;21.90;99.20;;;;;;5155466;27;20450;-71
2022/06/13 08:01:48;;;;;;;4.20;3.50;;;22.60;98.40;;;;;;5155627;27;20438;-70
2022/06/13 08:04:16;;;;;;;4.73;4.07;;;22.90;96.80;;;;;;5155353;27;20481;-70
2022/06/13 08:06:43;;;;;;;5.90;4.00;;;22.60;94.00;;;;;;5156091;27;20445;-70
2022/06/13 08:09:11;;;;;;;4.83;4.30;;;22.50;95.10;;;;;;5155563;27;20441;-70
2022/06/13 08:11:45;;;;;;;5.53;4.80;;;22.20;93.80;;;;;;5155657;27;20871;-70
2022/06/13 08:14:12;;;;;;;5.00;4.53;;;21.20;94.30;;;;;;5155436;27;20440;-71
2022/06/13 08:16:40;;;;;;;8.40;4.80;;;20.90;95.00;;;;;;5155364;27;20475;-69
2022/06/13 08:19:07;;;;;;;7.03;3.93;;;20.60;96.30;;;;;;5155411;27;20537;-69
2022/06/13 08:21:36;;;;;;;4.47;4.10;;;20.90;96.70;;;;;;5155205;27;20827;-70
2022/06/13 08:24:03;;;;;;;4.80;4.40;;;21.10;94.90;;;;;;5154823;27;20468;-70
2022/06/13 08:26:30;;;;;;;6.60;3.90;;;21.30;95.70;;;;;;5155177;27;20469;-71
2022/06/13 08:28:58;;;;;;;4.40;4.00;;;22.00;95.20;;;;;;5155221;27;20437;-71
2022/06/13 08:31:26;;;;;;;4.30;3.93;;;22.70;92.40;;;;;;5154826;27;20573;-71
2022/06/13 08:33:53;;;;;;;3.90;3.60;;;23.20;92.60;;;;;;5154891;27;20446;-69
2022/06/13 08:36:21;;;;;;;4.50;4.00;;;23.40;90.20;;;;;;5154996;27;20850;-69
2022/06/13 08:38:48;;;;;;;4.43;4.03;;;23.40;90.00;;;;;;5154771;27;20447;-71
2022/06/13 08:41:24;;;;;;;5.50;3.83;;;23.70;90.20;;;;;;5154885;27;20491;-71
2022/06/13 08:44:20;;;;;;;3.83;3.53;;;23.90;90.20;;;;;;5154670;27;20443;-70
2022/06/13 08:47:02;;;;;;;3.50;3.20;;;24.70;85.80;;;;;;5154891;27;20473;-70
2022/06/13 08:49:40;;;;;;;4.87;3.87;;;24.50;81.00;;;;;;5154897;27;20464;-70
2022/06/13 08:52:21;;;;;;;4.40;4.00;;;24.60;82.60;;;;;;5154595;27;20519;-71
2022/06/13 08:54:56;;;;;;;3.80;3.50;;;24.50;80.00;;;;;;5154944;27;20448;-71
2022/06/13 08:57:27;;;;;;;5.57;3.60;;;25.00;77.80;;;;;;5154185;27;20433;-70
2022/06/13 09:00:03;;;;;;;3.97;3.20;;;26.00;72.30;;;;;;5154554;27;20551;-69
2022/06/13 09:02:37;;;;;;;5.00;4.23;;;27.40;69.70;;;;;;5154362;27;20850;-70
2022/06/13 09:05:09;;;;;;;4.27;3.87;;;28.90;65.70;;;;;;5154724;27;20795;-70
2022/06/13 09:07:43;;;;;;;3.97;3.53;;;29.40;60.90;;;;;;5154394;27;20472;-70
2022/06/13 09:10:17;;;;;;;7.13;4.57;;;30.80;56.50;;;;;;5154035;27;20497;-70
2022/06/13 09:12:55;;;;;;;5.77;4.43;;;30.40;54.70;;;;;;5154026;27;20951;-70
2022/06/13 09:15:30;;;;;;;4.40;3.33;;;30.50;56.50;;;;;;5154628;27;20869;-70
2022/06/13 09:18:03;;;;;;;4.97;4.00;;;31.00;54.60;;;;;;5154317;27;20557;-70
2022/06/13 09:20:35;;;;;;;3.70;3.50;;;31.90;49.60;;;;;;5153552;27;20492;-71
2022/06/13 09:23:10;;;;;;;3.90;3.60;;;30.90;52.90;;;;;;5155327;27;20472;-72
2022/06/13 09:25:43;;;;;;;4.97;3.57;;;31.60;50.00;;;;;;5155543;27;20444;-72
2022/06/13 09:28:15;;;;;;;3.60;3.30;;;32.30;47.70;;;;;;5155275;27;20870;-72
2022/06/13 09:30:48;;;;;;;4.27;3.80;;;32.20;49.20;;;;;;5155015;27;20557;-73
2022/06/13 09:33:21;;;;;;;3.80;3.50;;;31.70;48.00;;;;;;5155324;27;20469;-72
2022/06/13 09:35:53;;;;;;;3.47;3.27;;;31.10;47.40;;;;;;5155356;27;20853;-73
2022/06/13 09:38:23;;;;;;;3.97;3.07;;;31.50;46.50;;;;;;5155484;27;20465;-73
2022/06/13 09:41:03;;;;;;;3.77;3.47;;;32.50;46.30;;;;;;5154956;27;20462;-73
2022/06/13 09:43:44;;;;;;;4.10;3.30;;;32.60;43.60;;;;;;5154779;27;20474;-73
2022/06/13 09:46:20;;;;;;;3.63;3.33;;;32.00;47.50;;;;;;5155238;27;20493;-73
2022/06/13 09:48:57;;;;;;;3.57;3.27;;;32.40;47.50;;;;;;5155100;27;20445;-73
2022/06/13 09:51:35;;;;;;;4.63;3.17;;;33.00;43.60;;;;;;5154733;27;20518;-73
2022/06/13 09:54:10;;;;;;;3.57;3.27;;;30.70;44.90;;;;;;5154577;27;20948;-73
2022/06/13 09:56:45;;;;;;;3.30;3.03;;;30.00;48.00;;;;;;5155068;27;20472;-72
2022/06/13 09:59:21;;;;;;;4.20;3.43;;;29.70;47.80;;;;;;5155090;27;20444;-73
2022/06/13 10:01:59;;;;;;;2.77;2.53;;;30.30;45.80;;;;;;5155054;27;20425;-72
2022/06/13 10:04:36;;;;;;;3.20;2.90;;;29.90;46.70;;;;;;5155216;27;20469;-73
2022/06/13 10:07:10;;;;;;;5.63;3.37;;;30.80;45.00;;;;;;5154934;27;20921;-73
2022/06/13 10:09:43;;;;;;;3.33;3.03;;;32.30;43.80;;;;;;5157100;27;20496;-73
2022/06/13 10:12:19;;;;;;;3.00;2.63;;;32.90;42.60;;;;;;5158667;27;20887;-74
2022/06/13 10:15:00;;;;;;;3.00;2.80;;;34.30;41.30;;;;;;5158810;27;20505;-73
2022/06/13 10:17:52;;;;;;;3.30;2.80;;;34.80;40.70;;;;;;5158880;27;20484;-73
2022/06/13 10:20:28;;;;;;;2.83;2.63;;;35.40;38.50;;;;;;5158446;27;20461;-73
2022/06/13 10:23:00;;;;;;;5.90;3.67;;;33.50;38.90;;;;;;5158433;27;20486;-72
2022/06/13 10:25:39;;;;;;;4.00;2.83;;;31.10;40.60;;;;;;5158525;27;20508;-72
2022/06/13 10:28:23;;;;;;;3.60;3.30;;;30.30;44.60;;;;;;5158620;27;20941;-72
2022/06/13 10:30:58;;;;;;;3.20;2.90;;;28.80;45.40;;;;;;5158305;27;20903;-73
2022/06/13 10:33:40;;;;;;;5.60;3.37;;;27.90;46.70;;;;;;5158039;27;20474;-72
2022/06/13 10:36:15;;;;;;;3.40;3.10;;;27.90;47.60;;;;;;5159213;27;20462;-72
2022/06/13 10:38:53;;;;;;;3.27;3.00;;;27.20;49.80;;;;;;5158158;27;20481;-72
2022/06/13 10:41:20;;;;;;;4.50;2.90;;;26.70;50.30;;;;;;5158222;27;20492;-72
2022/06/13 10:43:47;;;;;;;3.30;3.10;;;26.40;51.10;;;;;;5157807;27;20963;-73
2022/06/13 10:46:14;;;;;;;3.00;2.80;;;26.10;53.10;;;;;;5157931;27;20982;-72
2022/06/13 10:48:49;;;;;;;3.50;3.20;;;26.00;49.60;;;;;;5158026;27;20437;-72
2022/06/13 10:51:16;;;;;;;4.27;3.30;;;25.50;50.80;;;;;;5158530;27;20592;-72
2022/06/13 10:53:46;;;;;;;3.33;3.07;;;24.90;51.70;;;;;;5157530;27;20900;-72
2022/06/13 10:56:17;;;;;;;3.87;3.50;;;24.70;56.00;;;;;;5157950;27;20476;-72
2022/06/13 10:58:48;;;;;;;5.17;3.33;;;24.80;54.90;;;;;;5157817;27;20476;-72
2022/06/13 11:01:17;;;;;;;4.07;3.43;;;25.00;57.00;;;;;;5157910;27;20548;-72
2022/06/13 11:04:01;;;;;;;3.87;3.50;;;25.00;54.40;;;;;;5157651;27;20440;-72
2022/06/13 11:06:34;;;;;;;3.30;3.00;;;24.60;53.80;;;;;;5157728;27;20497;-72
2022/06/13 11:09:03;;;;;;;3.23;3.00;;;24.40;53.20;;;;;;5157686;27;20449;-72
2022/06/13 11:11:34;;;;;;;3.10;2.87;;;23.90;58.00;;;;;;5157540;27;20577;-72
2022/06/13 11:14:01;;;;;;;4.33;3.33;;;23.80;56.90;;;;;;5157244;27;20482;-72
2022/06/13 11:22:41;;;;;;;3.80;3.50;;;23.60;56.30;;;;;;5156536;27;20403;-72
2022/06/13 11:25:22;;;;;;;4.93;3.40;;;23.50;55.70;;;;;;5157364;27;20449;-73
2022/06/13 11:28:01;;;;;;;4.33;3.53;;;23.40;55.70;;;;;;5157093;27;20443;-72
2022/06/13 11:30:50;;;;;;;4.87;3.37;;;23.50;56.20;;;;;;5157305;27;20459;-72
2022/06/13 11:33:29;;;;;;;3.87;3.57;;;23.60;58.20;;;;;;5152307;27;20459;-72
2022/06/13 11:36:00;;;;;;;4.03;3.63;;;23.80;57.20;;;;;;5157171;27;20482;-72
2022/06/13 11:38:29;;;;;;;3.90;3.60;;;24.20;58.50;;;;;;5156925;27;20472;-72
2022/06/13 11:41:17;;;;;;;3.40;3.20;;;24.30;55.70;;;;;;5157041;27;20503;-72
2022/06/13 11:43:49;;;;;;;6.80;4.37;;;24.30;56.30;;;;;;5151870;27;20459;-72
2022/06/13 11:46:32;;;;;;;3.63;3.43;;;23.90;54.80;;;;;;5156858;27;20438;-72
2022/06/13 11:49:20;;;;;;;7.10;3.83;;;23.00;56.50;;;;;;5156846;27;20514;-72
2022/06/13 11:51:55;;;;;;;4.00;3.70;;;22.90;58.90;;;;;;5156839;27;20469;-72
2022/06/13 11:54:26;;;;;;;4.00;3.70;;;22.90;59.30;;;;;;5156209;27;20449;-72
2022/06/13 11:57:17;;;;;;;4.67;4.17;;;22.50;57.30;;;;;;5156695;27;20480;-71
2022/06/13 11:59:47;;;;;;;5.40;4.13;;;22.10;59.30;;;;;;5156477;27;20531;-72
2022/06/13 12:02:18;;;;;;;4.07;3.67;;;22.20;60.70;;;;;;5156770;27;20433;-72
2022/06/13 12:04:46;;;;;;;4.20;3.90;;;22.70;60.00;;;;;;5156425;27;20528;-72
2022/06/13 12:07:24;;;;;;;6.47;4.70;;;23.00;58.10;;;;;;5156182;27;20476;-72
2022/06/13 12:09:56;;;;;;;4.30;3.90;;;23.20;60.60;;;;;;5156187;27;20456;-72
2022/06/13 12:12:26;;;;;;;4.60;3.83;;;23.60;57.70;;;;;;5155890;27;20522;-73
2022/06/13 12:14:53;;;;;;;3.70;3.40;;;23.80;56.50;;;;;;5156282;27;20447;-72
2022/06/13 12:17:25;;;;;;;3.90;3.60;;;23.70;56.00;;;;;;5156191;27;20522;-72
2022/06/13 12:19:59;;;;;;;4.40;3.70;;;23.50;57.70;;;;;;5156238;27;20498;-72
2022/06/13 12:22:38;;;;;;;3.50;3.20;;;23.60;58.00;;;;;;5156067;27;20473;-72
2022/06/13 12:25:14;;;;;;;3.70;3.40;;;23.50;55.30;;;;;;5156157;27;20521;-72
2022/06/13 12:27:49;;;;;;;3.57;3.30;;;23.40;56.70;;;;;;5156231;27;20477;-72
2022/06/13 12:30:28;;;;;;;3.63;3.17;;;23.10;54.50;;;;;;5156101;27;20495;-72
2022/06/13 12:33:06;;;;;;;3.83;3.53;;;22.80;55.70;;;;;;5154701;27;20920;-72
2022/06/13 12:35:44;;;;;;;3.60;3.30;;;23.00;55.80;;;;;;5156198;27;20476;-72
2022/06/13 12:38:26;;;;;;;4.80;3.17;;;23.50;55.20;;;;;;5155886;27;20465;-73
2022/06/13 12:41:05;;;;;;;6.13;3.00;;;23.20;53.80;;;;;;5156142;27;20465;-72
2022/06/13 12:43:50;;;;;;;2.90;2.70;;;23.20;56.70;;;;;;5156263;27;20847;-72
2022/06/13 12:46:35;;;;;;;3.03;2.80;;;23.20;56.20;;;;;;5156128;27;20447;-72
2022/06/13 12:49:19;;;;;;;2.90;2.70;;;23.20;55.30;;;;;;5156081;27;20480;-72
2022/06/13 12:51:54;;;;;;;2.90;2.70;;;23.30;55.40;;;;;;5156279;27;20506;-72
2022/06/13 12:54:50;;;;;;;2.90;2.60;;;23.50;54.30;;;;;;5156031;27;20549;-72
2022/06/13 12:57:47;;;;;;;3.33;3.03;;;23.70;53.10;;;;;;5156360;27;20468;-72
2022/06/13 13:00:19;;;;;;;3.67;3.30;;;23.80;54.00;;;;;;5156324;27;20495;-72
2022/06/13 13:03:20;;;;;;;2.70;2.50;;;23.80;53.70;;;;;;5155865;27;20450;-72
2022/06/13 13:05:57;;;;;;;2.80;2.60;;;23.80;53.20;;;;;;5152715;27;20792;-72
2022/06/13 13:08:37;;;;;;;3.23;2.97;;;23.30;52.00;;;;;;5155991;27;20780;-72
2022/06/13 13:11:21;;;;;;;2.63;2.43;;;23.00;53.40;;;;;;5155460;27;20878;-72
2022/06/13 13:13:54;;;;;;;2.53;2.33;;;23.00;56.70;;;;;;5155226;27;20872;-72
2022/06/13 13:16:42;;;;;;;2.83;2.63;;;23.10;55.50;;;;;;5155381;27;20441;-72
2022/06/13 13:19:27;;;;;;;2.93;2.73;;;23.00;54.70;;;;;;5156100;27;20476;-71
2022/06/13 13:22:00;;;;;;;3.03;2.73;;;22.90;53.90;;;;;;5156084;27;20458;-72
2022/06/13 13:24:39;;;;;;;2.63;2.47;;;22.90;55.80;;;;;;5156024;27;20978;-72
2022/06/13 13:27:11;;;;;;;2.80;2.60;;;22.90;56.80;;;;;;5155702;27;20473;-72
2022/06/13 13:29:47;;;;;;;3.13;2.83;;;22.50;55.10;;;;;;5155401;27;20496;-72
2022/06/13 13:32:21;;;;;;;3.33;3.10;;;22.50;58.60;;;;;;5155234;27;20540;-72
2022/06/13 13:35:02;;;;;;;3.60;3.30;;;22.70;56.70;;;;;;5155433;27;20474;-71